OIKQ  Dayrestan  Airport

Iran

Add Bookmark
ICAO OIKQ
Type Airport
Status Operational
Latitude
26° 45' 16" N
26.754601
Longitude
55° 54' 8" E
55.902401
Local (DST + 5) UTC (GMT + 4)
Aug 30, 2015 01:25 Aug 29, 2015 20:55
Sunrise-Sunset Local UTC
Begin Civil Twilight 06:00 01:30
Sunrise 06:23 01:53
Sunset 07:10 14:40
End Civil Twilight 07:33 15:03
VFR
VFR
MVFR
MVFR
IFR
IFR
LIFR
LIFR
Unknown
Unavailable

Current Weather

METAR Observed
OIKQ 291800Z 05012KT 5000 HZ NSC 33/27 Q1002 Sat, Aug 29, 2015 @ 18:00 UTC
(2 Hours, 55 Minutes ago)
Wind Visibility Conditions
050° at 12 knots (22 kph) 5,005 m
  • Haze
Temperatures Readings Precipitation
Current Temp
33°C
91°F
Dewpoint
27°C
81°F
Heat Index
43°C
110°
Humidity 71%
Altimeter 29.59" Hg
Sea Level Pressure 1,002 mb
Field Elevation
12 m
39 ft
None Recorded

Additional weather within a 92.6km radius of OIKQ

Map ICAO Location
OIKB 69.8km NE (042°)
VFR
VFR
MVFR
MVFR
IFR
IFR
LIFR
LIFR
Unknown
Unavailable
-
-

CheckWX.com is intended as a tool to help pilots better visualize weather data. It is not intended as a substitute for an official weather briefing obtained from a Flight Service Station. CheckWX.com does not meet the FAA requirements for an official pre-flight weather briefing. Therefore, it's important that pilots still call and obtain an official FSS pre-flight weather briefing.

© 2007-2015 CheckWX.com
20:55:12 UTC